createdAt,value
2018-11-20T00:02:24.766Z,0
2018-11-20T00:03:39.504Z,0
2018-11-20T00:04:53.914Z,0
2018-11-20T00:06:23.020Z,0
2018-11-20T00:07:54.198Z,0
2018-11-20T00:09:09.371Z,0
2018-11-20T00:10:24.405Z,0
2018-11-20T00:11:38.630Z,0
2018-11-20T00:12:52.810Z,0
2018-11-20T00:14:07.054Z,0
2018-11-20T00:15:21.271Z,0
2018-11-20T00:16:49.805Z,0
2018-11-20T00:18:04.547Z,0
2018-11-20T00:19:33.147Z,0
2018-11-20T00:20:48.055Z,0
2018-11-20T00:22:03.462Z,0
2018-11-20T00:23:17.926Z,0
2018-11-20T00:24:32.760Z,0
2018-11-20T00:25:47.005Z,0
2018-11-20T00:27:01.752Z,0
2018-11-20T00:28:15.943Z,0
2018-11-20T00:29:30.640Z,0
2018-11-20T00:30:45.343Z,0
2018-11-20T00:32:00.285Z,0
2018-11-20T00:33:15.030Z,0
2018-11-20T00:34:29.700Z,0
2018-11-20T00:35:44.606Z,0
2018-11-20T00:36:58.853Z,0
2018-11-20T00:38:13.575Z,0
2018-11-20T00:39:27.588Z,0
2018-11-20T00:40:42.014Z,0
2018-11-20T00:41:56.470Z,0
2018-11-20T00:43:10.654Z,0
2018-11-20T00:44:24.817Z,0
2018-11-20T00:45:39.555Z,0
2018-11-20T00:46:53.739Z,0
2018-11-20T00:48:08.486Z,0
2018-11-20T00:49:23.249Z,0
2018-11-20T00:50:36.896Z,0
2018-11-20T00:51:50.905Z,0
2018-11-20T00:53:04.571Z,0
2018-11-20T00:54:18.797Z,0
2018-11-20T00:55:33.510Z,0
2018-11-20T00:56:47.945Z,0
2018-11-20T00:58:02.241Z,0
2018-11-20T00:59:16.780Z,0
2018-11-20T01:00:31.253Z,0
2018-11-20T01:02:00.633Z,0
2018-11-20T01:03:14.418Z,0
2018-11-20T01:04:29.564Z,0
2018-11-20T01:07:16.618Z,0
2018-11-20T01:08:31.286Z,0
2018-11-20T01:09:45.442Z,0
2018-11-20T01:10:59.641Z,0
2018-11-20T01:12:28.686Z,0
2018-11-20T01:13:43.507Z,0
2018-11-20T01:14:58.016Z,0
2018-11-20T01:16:12.209Z,0
2018-11-20T01:17:26.141Z,0
2018-11-20T01:18:40.334Z,0
2018-11-20T01:19:54.584Z,0
2018-11-20T01:21:09.650Z,0
2018-11-20T01:22:24.125Z,0
2018-11-20T01:23:38.622Z,0
2018-11-20T01:24:53.063Z,0
2018-11-20T01:26:07.346Z,0
2018-11-20T01:27:22.271Z,0
2018-11-20T01:28:37.498Z,0
2018-11-20T01:30:06.929Z,0
2018-11-20T01:31:21.790Z,0
2018-11-20T01:32:36.377Z,0
2018-11-20T01:33:50.272Z,0
2018-11-20T01:35:05.595Z,0
2018-11-20T01:36:20.084Z,0
2018-11-20T01:37:34.502Z,0
2018-11-20T01:38:48.917Z,0
2018-11-20T01:40:03.787Z,0
2018-11-20T01:41:18.416Z,0
2018-11-20T01:42:32.908Z,0
2018-11-20T01:43:46.951Z,0
2018-11-20T01:45:01.228Z,0
2018-11-20T01:46:15.667Z,0
2018-11-20T01:47:30.273Z,0
2018-11-20T01:48:44.978Z,0
2018-11-20T01:49:59.836Z,0
2018-11-20T01:51:14.565Z,0
2018-11-20T01:52:29.424Z,0
2018-11-20T01:53:43.603Z,0
2018-11-20T01:54:58.026Z,0
2018-11-20T01:56:12.608Z,0
2018-11-20T01:57:26.799Z,0
2018-11-20T01:58:41.254Z,0
2018-11-20T01:59:56.247Z,0
2018-11-20T02:01:10.198Z,0
2018-11-20T02:02:24.508Z,0
2018-11-20T02:03:38.944Z,0
2018-11-20T02:04:53.636Z,0
2018-11-20T02:06:07.790Z,0
2018-11-20T02:07:22.230Z,0
2018-11-20T02:08:37.014Z,0
2018-11-20T02:09:51.486Z,0
2018-11-20T02:11:05.700Z,0
2018-11-20T02:12:19.899Z,0
2018-11-20T02:13:34.337Z,0
2018-11-20T02:14:48.671Z,0
2018-11-20T02:16:02.956Z,0
2018-11-20T02:17:18.044Z,0
2018-11-20T02:18:32.238Z,0
2018-11-20T02:19:46.965Z,0
2018-11-20T02:21:02.019Z,0
2018-11-20T02:22:18.416Z,0
2018-11-20T02:23:32.884Z,0
2018-11-20T02:24:48.000Z,0
2018-11-20T02:26:02.270Z,0
2018-11-20T02:27:17.226Z,0
2018-11-20T02:28:31.407Z,0
2018-11-20T02:29:46.252Z,0
2018-11-20T02:31:00.362Z,0
2018-11-20T02:32:15.225Z,0
2018-11-20T02:33:30.408Z,0
2018-11-20T02:34:45.247Z,0
2018-11-20T02:35:59.922Z,0
2018-11-20T02:37:14.766Z,0
2018-11-20T02:38:29.367Z,0
2018-11-20T02:39:44.189Z,0
2018-11-20T02:40:58.885Z,0
2018-11-20T02:42:13.249Z,0
2018-11-20T02:43:28.142Z,0
2018-11-20T02:44:43.441Z,0
2018-11-20T02:47:42.055Z,0
2018-11-20T02:48:56.291Z,0
2018-11-20T02:50:11.491Z,0
2018-11-20T02:51:26.387Z,0
2018-11-20T02:52:41.013Z,0
2018-11-20T02:53:55.879Z,0
2018-11-20T02:55:23.613Z,0
2018-11-20T02:56:38.415Z,0
2018-11-20T02:57:52.739Z,0
2018-11-20T02:59:07.153Z,0
2018-11-20T03:00:21.594Z,0
2018-11-20T03:01:35.772Z,0
2018-11-20T03:02:50.210Z,0
2018-11-20T03:04:04.397Z,0
2018-11-20T03:05:20.790Z,0
2018-11-20T03:06:35.215Z,0
2018-11-20T03:07:49.336Z,0
2018-11-20T03:09:03.573Z,0
2018-11-20T03:10:18.445Z,0
2018-11-20T03:11:33.315Z,0
2018-11-20T03:12:48.006Z,0
2018-11-20T03:14:02.878Z,0
2018-11-20T03:15:17.354Z,0
2018-11-20T03:16:31.497Z,0
2018-11-20T03:17:45.905Z,0
2018-11-20T03:19:00.026Z,0
2018-11-20T03:20:14.540Z,0
2018-11-20T03:21:29.291Z,0
2018-11-20T03:22:43.561Z,0
2018-11-20T03:23:58.357Z,0
2018-11-20T03:25:12.589Z,0
2018-11-20T03:26:42.064Z,0
2018-11-20T03:27:57.294Z,0
2018-11-20T03:29:11.962Z,0
2018-11-20T03:30:26.429Z,0
2018-11-20T03:31:40.600Z,0
2018-11-20T03:32:55.012Z,0
2018-11-20T03:34:09.234Z,0
2018-11-20T03:35:24.062Z,0
2018-11-20T03:36:38.510Z,0
2018-11-20T03:37:52.566Z,0
2018-11-20T03:39:06.747Z,0
2018-11-20T03:40:20.422Z,0
2018-11-20T03:41:34.749Z,0
2018-11-20T03:42:49.100Z,0
2018-11-20T03:44:18.837Z,0
2018-11-20T03:45:32.759Z,0
2018-11-20T03:46:47.683Z,0
2018-11-20T03:48:02.922Z,0
2018-11-20T03:49:17.397Z,0
2018-11-20T03:50:31.818Z,0
2018-11-20T03:51:46.241Z,0
2018-11-20T03:53:00.654Z,0
2018-11-20T03:54:14.655Z,0
2018-11-20T03:55:29.097Z,0
2018-11-20T03:56:43.626Z,0
2018-11-20T03:59:27.181Z,0
2018-11-20T04:00:42.222Z,0
2018-11-20T04:01:56.333Z,0
2018-11-20T04:03:10.528Z,0
2018-11-20T04:06:23.587Z,0
2018-11-20T04:07:37.465Z,0
2018-11-20T04:08:51.385Z,0
2018-11-20T04:10:05.322Z,0
2018-11-20T04:11:20.032Z,0
2018-11-20T04:12:34.271Z,0
2018-11-20T04:13:48.614Z,0
2018-11-20T04:15:03.224Z,0
2018-11-20T04:16:17.697Z,0
2018-11-20T04:17:32.411Z,0
2018-11-20T04:18:46.794Z,0
2018-11-20T04:20:03.802Z,0
2018-11-20T04:21:18.932Z,0
2018-11-20T04:22:33.649Z,0
2018-11-20T04:23:47.599Z,0
2018-11-20T04:25:01.895Z,0
2018-11-20T04:26:16.738Z,0
2018-11-20T04:27:31.068Z,0
2018-11-20T04:28:59.922Z,0
2018-11-20T04:30:14.387Z,0
2018-11-20T04:31:28.943Z,0
2018-11-20T04:32:43.358Z,0
2018-11-20T04:33:57.013Z,0
2018-11-20T04:35:11.475Z,0
2018-11-20T04:36:26.569Z,0
2018-11-20T04:37:41.281Z,0
2018-11-20T04:38:56.431Z,0
2018-11-20T04:40:11.610Z,0
2018-11-20T04:41:40.601Z,0
2018-11-20T04:42:54.771Z,0
2018-11-20T04:44:25.667Z,0
2018-11-20T04:45:39.868Z,0
2018-11-20T04:46:53.784Z,0
2018-11-20T04:48:08.704Z,0
2018-11-20T04:49:23.152Z,0
2018-11-20T04:50:37.349Z,0
2018-11-20T04:51:51.016Z,0
2018-11-20T04:53:05.650Z,0
2018-11-20T04:54:31.676Z,0
2018-11-20T04:55:45.611Z,0
2018-11-20T04:57:00.078Z,0
2018-11-20T04:58:14.480Z,0
2018-11-20T04:59:29.019Z,0
2018-11-20T05:00:43.494Z,0
2018-11-20T05:01:57.695Z,0
2018-11-20T05:03:12.554Z,0
2018-11-20T05:04:27.072Z,0
2018-11-20T05:05:41.853Z,0
2018-11-20T05:06:57.019Z,0
2018-11-20T05:08:11.514Z,0
2018-11-20T05:09:25.892Z,0
2018-11-20T05:10:40.396Z,0
2018-11-20T05:11:54.293Z,0
2018-11-20T05:13:08.372Z,0
2018-11-20T05:14:22.901Z,0
2018-11-20T05:15:37.430Z,0
2018-11-20T05:16:52.090Z,0
2018-11-20T05:18:06.601Z,0
2018-11-20T05:19:20.994Z,0
2018-11-20T05:20:34.913Z,0
2018-11-20T05:21:48.318Z,0
2018-11-20T05:23:02.491Z,0
2018-11-20T05:24:16.675Z,0
2018-11-20T05:25:31.133Z,0
2018-11-20T05:26:46.202Z,0
2018-11-20T05:28:15.746Z,0
2018-11-20T05:29:30.210Z,0
2018-11-20T05:30:45.010Z,0
2018-11-20T05:31:59.033Z,0
2018-11-20T05:33:12.975Z,0
2018-11-20T05:34:27.248Z,0
2018-11-20T05:35:41.782Z,0
2018-11-20T05:36:56.434Z,0
2018-11-20T05:38:11.087Z,0
2018-11-20T05:39:25.262Z,0
2018-11-20T05:40:40.398Z,0
2018-11-20T05:41:54.892Z,0
2018-11-20T05:43:09.325Z,0
2018-11-20T05:44:51.357Z,0
2018-11-20T05:46:06.378Z,0
2018-11-20T05:47:21.422Z,0
2018-11-20T05:48:35.355Z,0
2018-11-20T05:49:49.796Z,0
2018-11-20T05:51:04.254Z,0
2018-11-20T05:52:18.297Z,0
2018-11-20T05:53:41.652Z,0
2018-11-20T05:54:55.655Z,0
2018-11-20T05:56:09.976Z,0
2018-11-20T05:57:24.176Z,0
2018-11-20T05:58:38.619Z,0
2018-11-20T05:59:53.530Z,0
2018-11-20T06:01:07.962Z,0
2018-11-20T06:02:22.171Z,0
2018-11-20T06:03:38.992Z,0
2018-11-20T06:04:53.199Z,0
2018-11-20T06:06:22.958Z,0
2018-11-20T06:07:36.630Z,0
2018-11-20T06:08:51.465Z,0
2018-11-20T06:10:06.312Z,0
2018-11-20T06:11:20.389Z,0
2018-11-20T06:12:35.166Z,0
2018-11-20T06:13:49.565Z,0
2018-11-20T06:15:04.036Z,0
2018-11-20T06:16:17.984Z,0
2018-11-20T06:17:32.293Z,0
2018-11-20T06:18:46.811Z,0
2018-11-20T06:20:01.721Z,0
2018-11-20T06:21:16.148Z,0
2018-11-20T06:22:30.581Z,0
2018-11-20T06:23:45.774Z,4
2018-11-20T06:25:00.233Z,4
2018-11-20T06:26:14.566Z,0
2018-11-20T06:27:29.290Z,4
2018-11-20T06:28:43.934Z,4
2018-11-20T06:29:59.282Z,4
2018-11-20T06:31:28.370Z,4
2018-11-20T06:32:42.346Z,4
2018-11-20T06:33:57.039Z,8
2018-11-20T06:35:11.756Z,8
2018-11-20T06:36:25.929Z,8
2018-11-20T06:37:39.853Z,12
2018-11-20T06:38:53.549Z,12
2018-11-20T06:40:07.744Z,12
2018-11-20T06:41:23.954Z,16
2018-11-20T06:42:39.555Z,16
2018-11-20T06:43:53.768Z,20
2018-11-20T06:45:08.469Z,20
2018-11-20T06:46:22.758Z,20
2018-11-20T06:47:37.305Z,24
2018-11-20T06:48:51.566Z,28
2018-11-20T06:50:05.822Z,28
2018-11-20T06:51:19.849Z,36
2018-11-20T06:52:34.841Z,40
2018-11-20T06:53:50.465Z,44
2018-11-20T06:55:04.390Z,40
2018-11-20T06:56:18.946Z,40
2018-11-20T06:57:48.437Z,44
2018-11-20T06:59:03.037Z,52
2018-11-20T07:00:17.020Z,60
2018-11-20T07:01:32.010Z,64
2018-11-20T07:03:03.813Z,60
2018-11-20T07:04:18.526Z,72
2018-11-20T07:05:33.258Z,72
2018-11-20T07:06:47.612Z,76
2018-11-20T07:08:03.253Z,76
2018-11-20T07:09:18.892Z,84
2018-11-20T07:10:33.172Z,88
2018-11-20T07:11:49.164Z,88
2018-11-20T07:13:04.149Z,92
2018-11-20T07:14:18.475Z,96
2018-11-20T07:15:34.045Z,116
2018-11-20T07:16:49.312Z,116
2018-11-20T07:18:04.322Z,112
2018-11-20T07:19:19.035Z,108
2018-11-20T07:20:34.239Z,108
2018-11-20T07:21:48.901Z,120
2018-11-20T07:23:05.726Z,128
2018-11-20T07:24:20.237Z,144
2018-11-20T07:25:36.309Z,160
2018-11-20T07:26:51.299Z,168
2018-11-20T07:28:22.286Z,176
2018-11-20T07:29:38.696Z,184
2018-11-20T07:30:55.074Z,204
2018-11-20T07:32:10.262Z,196
2018-11-20T07:33:24.762Z,204
2018-11-20T07:34:40.196Z,196
2018-11-20T07:35:54.867Z,200
2018-11-20T07:37:10.514Z,204
2018-11-20T07:38:25.464Z,216
2018-11-20T07:39:39.730Z,212
2018-11-20T07:40:54.195Z,240
2018-11-20T07:42:09.361Z,248
2018-11-20T07:43:39.030Z,240
2018-11-20T07:44:53.619Z,284
2018-11-20T07:46:07.882Z,304
2018-11-20T07:47:23.709Z,328
2018-11-20T07:48:39.017Z,328
2018-11-20T07:49:53.720Z,336
2018-11-20T07:51:08.206Z,388
2018-11-20T07:52:36.411Z,428
2018-11-20T07:53:51.247Z,492
2018-11-20T07:55:05.243Z,428
2018-11-20T07:56:21.374Z,520
2018-11-20T07:57:35.677Z,592
2018-11-20T07:58:50.120Z,580
2018-11-20T08:00:06.565Z,628
2018-11-20T08:01:21.575Z,608
2018-11-20T08:02:36.279Z,592
2018-11-20T08:03:51.261Z,644
2018-11-20T08:05:05.886Z,680
2018-11-20T08:06:20.603Z,608
2018-11-20T08:07:35.126Z,612
2018-11-20T08:08:50.025Z,680
2018-11-20T08:10:04.252Z,672
2018-11-20T08:11:18.769Z,664
2018-11-20T08:12:33.245Z,680
2018-11-20T08:13:47.689Z,624
2018-11-20T08:15:02.620Z,648
2018-11-20T08:16:18.061Z,696
2018-11-20T08:17:32.726Z,680
2018-11-20T08:18:47.876Z,660
2018-11-20T08:20:02.601Z,648
2018-11-20T08:21:16.801Z,592
2018-11-20T08:22:31.493Z,636
2018-11-20T08:23:45.677Z,720
2018-11-20T08:25:00.069Z,736
2018-11-20T08:26:14.437Z,636
2018-11-20T08:27:29.636Z,636
2018-11-20T08:28:43.136Z,652
2018-11-20T08:29:57.904Z,648
2018-11-20T08:31:12.669Z,620
2018-11-20T08:32:26.779Z,660
2018-11-20T08:33:41.855Z,680
2018-11-20T08:34:55.694Z,708
2018-11-20T08:36:10.121Z,636
2018-11-20T08:37:24.683Z,568
2018-11-20T08:38:39.049Z,588
2018-11-20T08:39:53.833Z,576
2018-11-20T08:41:07.816Z,544
2018-11-20T08:42:22.811Z,560
2018-11-20T08:43:37.672Z,592
2018-11-20T08:44:52.206Z,640
2018-11-20T08:46:06.626Z,616
2018-11-20T08:47:37.693Z,648
2018-11-20T08:48:51.482Z,660
2018-11-20T08:50:05.978Z,636
2018-11-20T08:51:20.391Z,688
2018-11-20T08:52:34.233Z,656
2018-11-20T08:53:49.266Z,676
2018-11-20T08:55:04.292Z,700
2018-11-20T08:56:18.749Z,772
2018-11-20T08:57:33.436Z,820
2018-11-20T08:58:47.630Z,792
2018-11-20T09:00:01.857Z,800
2018-11-20T09:01:16.874Z,936
2018-11-20T09:02:32.179Z,984
2018-11-20T09:03:46.102Z,1060
2018-11-20T09:05:01.007Z,1040
2018-11-20T09:06:15.559Z,1028
2018-11-20T09:07:30.376Z,968
2018-11-20T09:08:44.336Z,980
2018-11-20T09:10:00.562Z,984
2018-11-20T09:11:21.633Z,1056
2018-11-20T09:12:52.634Z,1120
2018-11-20T09:14:06.646Z,1076
2018-11-20T09:15:22.655Z,892
2018-11-20T09:16:37.470Z,960
2018-11-20T09:17:52.400Z,1076
2018-11-20T09:19:06.704Z,1020
2018-11-20T09:20:23.549Z,1020
2018-11-20T09:21:46.164Z,1132
2018-11-20T09:23:00.350Z,1056
2018-11-20T09:24:14.518Z,1112
2018-11-20T09:25:29.959Z,1184
2018-11-20T09:26:44.812Z,1128
2018-11-20T09:27:59.361Z,1156
2018-11-20T09:29:13.884Z,1160
2018-11-20T09:30:28.170Z,1292
2018-11-20T09:31:42.130Z,1276
2018-11-20T09:32:56.715Z,1200
2018-11-20T09:34:10.428Z,1372
2018-11-20T09:35:26.419Z,1284
2018-11-20T09:36:41.708Z,1280
2018-11-20T09:37:56.447Z,1312
2018-11-20T09:39:11.293Z,1304
2018-11-20T09:40:25.761Z,1324
2018-11-20T09:41:39.906Z,1316
2018-11-20T09:42:53.821Z,1388
2018-11-20T09:44:08.623Z,1248
2018-11-20T09:45:22.959Z,1240
2018-11-20T09:46:37.547Z,1268
2018-11-20T09:47:52.711Z,1568
2018-11-20T09:49:06.854Z,1372
2018-11-20T09:50:21.480Z,1332
2018-11-20T09:51:35.514Z,1276
2018-11-20T09:52:49.958Z,1248
2018-11-20T09:54:04.800Z,1376
2018-11-20T09:55:18.741Z,1276
2018-11-20T09:56:33.391Z,1296
2018-11-20T09:57:47.584Z,1360
2018-11-20T09:59:01.810Z,1336
2018-11-20T10:00:16.105Z,1220
2018-11-20T10:01:30.630Z,1172
2018-11-20T10:02:44.667Z,1120
2018-11-20T10:04:00.092Z,1220
2018-11-20T10:05:14.682Z,1212
2018-11-20T10:06:29.404Z,1192
2018-11-20T10:07:43.626Z,1096
2018-11-20T10:08:59.107Z,1056
2018-11-20T10:10:13.857Z,988
2018-11-20T10:11:28.454Z,988
2018-11-20T10:12:42.954Z,1032
2018-11-20T10:13:57.911Z,1012
2018-11-20T10:15:13.346Z,1016
2018-11-20T10:16:28.210Z,968
2018-11-20T10:17:42.460Z,972
2018-11-20T10:18:57.165Z,948
2018-11-20T10:20:12.266Z,932
2018-11-20T10:21:27.073Z,928
2018-11-20T10:22:41.845Z,984
2018-11-20T10:23:57.446Z,948
2018-11-20T10:25:11.915Z,888
2018-11-20T10:26:28.776Z,852
2018-11-20T10:27:43.571Z,832
2018-11-20T10:28:57.530Z,920
2018-11-20T10:31:25.145Z,896
2018-11-20T10:32:39.379Z,948
2018-11-20T10:33:54.233Z,960
2018-11-20T10:35:09.963Z,948
2018-11-20T10:36:24.514Z,976
2018-11-20T10:37:53.893Z,1004
2018-11-20T10:39:22.997Z,968
2018-11-20T10:40:49.646Z,984
2018-11-20T10:42:03.977Z,916
2018-11-20T10:43:17.936Z,912
2018-11-20T10:44:31.865Z,868
2018-11-20T10:45:45.558Z,984
2018-11-20T10:46:59.591Z,1072
2018-11-20T10:48:28.756Z,960
2018-11-20T10:49:43.262Z,864
2018-11-20T10:50:57.179Z,872
2018-11-20T10:52:11.379Z,836
2018-11-20T10:53:40.987Z,880
2018-11-20T10:55:25.508Z,892
2018-11-20T10:56:40.420Z,848
2018-11-20T10:57:56.028Z,840
2018-11-20T10:59:10.974Z,764
2018-11-20T11:00:41.634Z,756
2018-11-20T11:02:25.673Z,676
2018-11-20T11:03:40.429Z,660
2018-11-20T11:04:55.481Z,636
2018-11-20T11:06:25.566Z,600
2018-11-20T11:07:41.191Z,580
2018-11-20T11:08:56.767Z,608
2018-11-20T11:10:40.816Z,648
2018-11-20T11:12:09.477Z,680
2018-11-20T11:13:26.167Z,652
2018-11-20T11:14:41.079Z,608
2018-11-20T11:15:55.225Z,544
2018-11-20T11:17:09.762Z,496
2018-11-20T11:18:24.274Z,564
2018-11-20T11:19:38.663Z,624
2018-11-20T11:20:52.258Z,640
2018-11-20T11:22:07.201Z,736
2018-11-20T11:23:21.402Z,816
2018-11-20T11:24:35.886Z,868
2018-11-20T11:25:50.947Z,752
2018-11-20T11:27:05.345Z,768
2018-11-20T11:30:32.891Z,996
2018-11-20T11:31:48.334Z,1040
2018-11-20T11:33:03.054Z,1056
2018-11-20T11:34:32.748Z,1144
2018-11-20T11:35:47.008Z,1188
2018-11-20T11:37:01.752Z,1148
2018-11-20T11:38:15.965Z,1204
2018-11-20T11:39:30.516Z,1180
2018-11-20T11:40:45.572Z,1096
2018-11-20T11:41:59.397Z,1108
2018-11-20T11:43:13.851Z,1112
2018-11-20T11:44:28.834Z,1104
2018-11-20T11:45:42.958Z,1084
2018-11-20T11:46:57.463Z,1004
2018-11-20T11:48:11.689Z,1032
2018-11-20T11:49:26.439Z,1112
2018-11-20T11:50:40.715Z,1304
2018-11-20T11:51:55.235Z,1272
2018-11-20T11:53:10.659Z,1260
2018-11-20T11:54:41.248Z,1280
2018-11-20T11:55:55.534Z,1088
2018-11-20T11:57:09.966Z,1024
2018-11-20T11:58:24.233Z,968
2018-11-20T11:59:39.007Z,880
2018-11-20T12:00:53.369Z,896
2018-11-20T12:03:20.926Z,1052
2018-11-20T12:04:35.502Z,1084
2018-11-20T12:05:49.693Z,1036
2018-11-20T12:07:19.745Z,976
2018-11-20T12:08:33.696Z,1016
2018-11-20T12:11:33.271Z,984
2018-11-20T12:13:03.416Z,896
2018-11-20T12:14:18.732Z,784
2018-11-20T12:15:34.213Z,744
2018-11-20T12:16:48.223Z,728
2018-11-20T12:18:02.510Z,704
2018-11-20T12:19:16.724Z,732
2018-11-20T12:20:39.006Z,780
2018-11-20T12:21:53.993Z,756
2018-11-20T12:23:08.830Z,700
2018-11-20T12:24:23.511Z,672
2018-11-20T12:25:39.979Z,564
2018-11-20T12:26:55.035Z,516
2018-11-20T12:28:09.702Z,532
2018-11-20T12:29:26.980Z,540
2018-11-20T12:30:48.835Z,600
2018-11-20T12:32:06.366Z,732
2018-11-20T12:33:21.390Z,840
2018-11-20T12:34:37.543Z,868
2018-11-20T12:35:52.111Z,896
2018-11-20T12:37:11.153Z,976
2018-11-20T12:38:26.686Z,1100
2018-11-20T12:39:45.528Z,1140
2018-11-20T12:41:00.269Z,1144
2018-11-20T12:42:15.122Z,1008
2018-11-20T12:43:29.613Z,1056
2018-11-20T12:44:49.548Z,1196
2018-11-20T12:46:04.437Z,1072
2018-11-20T12:47:24.499Z,1260
2018-11-20T12:48:40.340Z,1432
2018-11-20T12:51:29.818Z,1416
2018-11-20T12:52:44.388Z,1636
2018-11-20T12:54:14.716Z,1368
2018-11-20T12:55:29.256Z,1192
2018-11-20T12:56:44.380Z,1092
2018-11-20T12:57:58.925Z,980
2018-11-20T12:59:13.954Z,884
2018-11-20T13:00:27.193Z,684
2018-11-20T13:01:41.502Z,564
2018-11-20T13:02:56.574Z,568
2018-11-20T13:04:25.994Z,572
2018-11-20T13:05:41.088Z,524
2018-11-20T13:06:55.330Z,468
2018-11-20T13:10:15.066Z,492
2018-11-20T13:11:29.496Z,564
2018-11-20T13:12:46.577Z,608
2018-11-20T13:14:05.001Z,600
2018-11-20T13:15:19.795Z,636
2018-11-20T13:16:34.728Z,576
2018-11-20T13:17:49.257Z,536
2018-11-20T13:19:04.317Z,500
2018-11-20T13:20:20.439Z,488
2018-11-20T13:21:34.935Z,520
2018-11-20T13:22:51.952Z,484
2018-11-20T13:24:09.535Z,492
2018-11-20T13:25:26.207Z,512
2018-11-20T13:26:40.450Z,460
2018-11-20T13:27:55.245Z,440
2018-11-20T13:29:09.221Z,396
2018-11-20T13:30:24.248Z,428
2018-11-20T13:31:39.420Z,428
2018-11-20T13:32:55.036Z,456
2018-11-20T13:34:10.385Z,588
2018-11-20T13:35:25.078Z,500
2018-11-20T13:36:39.888Z,460
2018-11-20T13:37:54.131Z,420
2018-11-20T13:39:11.786Z,416
2018-11-20T13:40:26.550Z,396
2018-11-20T13:41:42.631Z,368
2018-11-20T13:42:57.002Z,404
2018-11-20T13:44:11.879Z,328
2018-11-20T13:45:27.034Z,304
2018-11-20T13:46:41.190Z,352
2018-11-20T13:47:57.504Z,348
2018-11-20T13:49:12.114Z,296
2018-11-20T13:50:26.746Z,304
2018-11-20T13:51:42.326Z,304
2018-11-20T13:52:59.602Z,300
2018-11-20T13:54:14.280Z,304
2018-11-20T13:55:33.856Z,296
2018-11-20T13:56:48.418Z,324
2018-11-20T13:58:03.229Z,384
2018-11-20T13:59:17.801Z,340
2018-11-20T14:00:47.285Z,296
2018-11-20T14:02:01.623Z,292
2018-11-20T14:03:16.234Z,284
2018-11-20T14:04:31.311Z,284
2018-11-20T14:05:45.043Z,228
2018-11-20T14:06:59.774Z,248
2018-11-20T14:08:14.391Z,328
2018-11-20T14:09:45.218Z,300
2018-11-20T14:10:58.974Z,276
2018-11-20T14:12:13.380Z,220
2018-11-20T14:13:27.862Z,216
2018-11-20T14:14:42.559Z,232
2018-11-20T14:15:56.639Z,188
2018-11-20T14:17:10.910Z,128
2018-11-20T14:18:25.094Z,124
2018-11-20T14:19:42.864Z,144
2018-11-20T14:20:57.363Z,156
2018-11-20T14:22:11.634Z,128
2018-11-20T14:23:25.434Z,128
2018-11-20T14:24:39.940Z,124
2018-11-20T14:25:53.884Z,128
2018-11-20T14:27:23.012Z,104
2018-11-20T14:28:37.587Z,88
2018-11-20T14:29:52.291Z,92
2018-11-20T14:31:06.312Z,112
2018-11-20T14:32:21.170Z,108
2018-11-20T14:33:35.809Z,104
2018-11-20T14:34:50.350Z,120
2018-11-20T14:36:04.906Z,124
2018-11-20T14:37:19.398Z,124
2018-11-20T14:38:33.917Z,148
2018-11-20T14:39:47.876Z,152
2018-11-20T14:41:04.479Z,172
2018-11-20T14:42:19.345Z,216
2018-11-20T14:43:33.884Z,208
2018-11-20T14:44:48.123Z,168
2018-11-20T14:46:02.566Z,168
2018-11-20T14:47:17.191Z,168
2018-11-20T14:48:31.653Z,160
2018-11-20T14:49:45.768Z,160
2018-11-20T14:51:00.384Z,160
2018-11-20T14:52:14.601Z,160
2018-11-20T14:53:29.477Z,160
2018-11-20T14:54:43.695Z,172
2018-11-20T14:56:13.066Z,164
2018-11-20T14:57:27.327Z,160
2018-11-20T14:58:41.948Z,144
2018-11-20T14:59:55.925Z,140
2018-11-20T15:01:10.431Z,148
2018-11-20T15:02:24.919Z,112
2018-11-20T15:03:39.667Z,104
2018-11-20T15:06:52.168Z,92
2018-11-20T15:08:08.592Z,84
2018-11-20T15:09:22.540Z,72
2018-11-20T15:10:37.833Z,76
2018-11-20T15:11:52.607Z,72
2018-11-20T15:13:06.789Z,64
2018-11-20T15:14:20.763Z,52
2018-11-20T15:15:35.463Z,52
2018-11-20T15:16:49.500Z,68
2018-11-20T15:18:03.970Z,64
2018-11-20T15:19:18.169Z,52
2018-11-20T15:20:32.396Z,44
2018-11-20T15:21:47.174Z,40
2018-11-20T15:23:01.901Z,44
2018-11-20T15:24:16.910Z,32
2018-11-20T15:25:31.578Z,32
2018-11-20T15:26:47.674Z,36
2018-11-20T15:28:03.674Z,28
2018-11-20T15:29:19.210Z,24
2018-11-20T15:30:33.922Z,20
2018-11-20T15:31:49.281Z,20
2018-11-20T15:33:18.784Z,20
2018-11-20T15:34:33.187Z,16
2018-11-20T15:35:47.599Z,16
2018-11-20T15:37:02.052Z,12
2018-11-20T15:38:16.306Z,12
2018-11-20T15:39:30.639Z,12
2018-11-20T15:40:45.196Z,12
2018-11-20T15:42:06.686Z,8
2018-11-20T15:43:19.273Z,8
2018-11-20T15:44:34.558Z,8
2018-11-20T15:47:18.877Z,8
2018-11-20T15:48:50.302Z,8
2018-11-20T15:50:05.093Z,4
2018-11-20T15:51:20.107Z,4
2018-11-20T15:52:34.607Z,4
2018-11-20T15:53:49.360Z,4
2018-11-20T15:55:04.140Z,0
2018-11-20T15:56:18.623Z,0
2018-11-20T15:57:32.931Z,4
2018-11-20T15:58:49.902Z,0
2018-11-20T16:00:05.572Z,0
2018-11-20T16:01:27.469Z,0
2018-11-20T16:02:42.049Z,0
2018-11-20T16:03:56.856Z,0
2018-11-20T16:05:26.557Z,0
2018-11-20T16:06:42.103Z,0
2018-11-20T16:07:56.185Z,0
2018-11-20T16:09:10.488Z,0
2018-11-20T16:10:25.540Z,0
2018-11-20T16:11:39.819Z,0
2018-11-20T16:12:53.804Z,0
2018-11-20T16:14:09.018Z,0
2018-11-20T16:15:23.254Z,0
2018-11-20T16:16:37.188Z,0
2018-11-20T16:17:51.908Z,0
2018-11-20T16:19:06.135Z,0
2018-11-20T16:20:20.886Z,0
2018-11-20T16:21:35.717Z,0
2018-11-20T16:22:50.391Z,0
2018-11-20T16:24:05.165Z,0
2018-11-20T16:25:19.582Z,0
2018-11-20T16:26:34.038Z,0
2018-11-20T16:27:48.960Z,0
2018-11-20T16:29:03.219Z,0
2018-11-20T16:30:18.495Z,0
2018-11-20T16:31:33.299Z,0
2018-11-20T16:32:47.744Z,0
2018-11-20T16:34:02.314Z,0
2018-11-20T16:35:17.022Z,0
2018-11-20T16:36:31.232Z,0
2018-11-20T16:37:45.963Z,0
2018-11-20T16:38:59.945Z,0
2018-11-20T16:40:30.031Z,0
2018-11-20T16:41:49.549Z,0
2018-11-20T16:43:03.812Z,0
2018-11-20T16:44:18.634Z,0
2018-11-20T16:45:33.854Z,0
2018-11-20T16:46:48.421Z,0
2018-11-20T16:48:19.012Z,0
2018-11-20T16:49:34.118Z,0
2018-11-20T16:50:49.033Z,0
2018-11-20T16:52:03.592Z,0
2018-11-20T16:53:18.050Z,0
2018-11-20T16:54:49.871Z,0
2018-11-20T16:56:04.629Z,0
2018-11-20T16:57:19.172Z,0
2018-11-20T16:58:34.141Z,0
2018-11-20T16:59:48.706Z,0
2018-11-20T17:01:04.391Z,0
2018-11-20T17:02:19.779Z,0
2018-11-20T17:03:35.450Z,0
2018-11-20T17:04:49.920Z,0
2018-11-20T17:06:04.471Z,0
2018-11-20T17:07:18.443Z,0
2018-11-20T17:08:35.022Z,0
2018-11-20T17:09:49.223Z,0
2018-11-20T17:11:04.120Z,0
2018-11-20T17:12:18.304Z,0
2018-11-20T17:13:32.757Z,0
2018-11-20T17:14:47.002Z,0
2018-11-20T17:16:01.692Z,0
2018-11-20T17:17:16.090Z,0
2018-11-20T17:18:30.321Z,0
2018-11-20T17:19:44.781Z,0
2018-11-20T17:20:59.305Z,0
2018-11-20T17:22:13.793Z,0
2018-11-20T17:23:28.326Z,0
2018-11-20T17:24:43.509Z,0
2018-11-20T17:25:58.054Z,0
2018-11-20T17:27:12.568Z,0
2018-11-20T17:28:26.815Z,0
2018-11-20T17:29:41.231Z,0
2018-11-20T17:30:55.294Z,0
2018-11-20T17:32:09.856Z,0
2018-11-20T17:33:24.385Z,0
2018-11-20T17:34:42.058Z,0
2018-11-20T17:35:57.127Z,0
2018-11-20T17:37:11.352Z,0
2018-11-20T17:38:26.143Z,0
2018-11-20T17:39:40.442Z,0
2018-11-20T17:40:54.926Z,0
2018-11-20T17:42:09.680Z,0
2018-11-20T17:43:23.975Z,0
2018-11-20T17:44:38.750Z,0
2018-11-20T17:45:53.094Z,0
2018-11-20T17:47:08.026Z,0
2018-11-20T17:48:37.083Z,0
2018-11-20T17:49:51.840Z,0
2018-11-20T17:51:06.609Z,0
2018-11-20T17:52:20.556Z,0
2018-11-20T17:53:35.021Z,0
2018-11-20T17:54:49.345Z,0
2018-11-20T17:56:03.831Z,0
2018-11-20T17:57:35.936Z,0
2018-11-20T17:58:50.504Z,0
2018-11-20T18:00:05.402Z,0
2018-11-20T18:01:19.192Z,0
2018-11-20T18:02:47.666Z,0
2018-11-20T18:04:02.271Z,0
2018-11-20T18:05:17.387Z,0
2018-11-20T18:06:36.622Z,0
2018-11-20T18:07:55.990Z,0
2018-11-20T18:09:25.727Z,0
2018-11-20T18:10:39.433Z,0
2018-11-20T18:11:53.726Z,0
2018-11-20T18:13:08.272Z,0
2018-11-20T18:14:22.221Z,0
2018-11-20T18:15:36.854Z,0
2018-11-20T18:16:51.332Z,0
2018-11-20T18:18:05.605Z,0
2018-11-20T18:19:20.085Z,0
2018-11-20T18:20:34.794Z,0
2018-11-20T18:21:48.698Z,0
2018-11-20T18:23:03.434Z,0